Time;durP1;ratioP1;P1;durP2;ratioP2;P2;SDS_P1;SDS_P2;PMS_P1;PMS_P2;Temp;Humidity;BMP_temperature;BMP_pressure;BME280_temperature;BME280_humidity;BME280_pressure;Samples;Min_cycle;Max_cycle;Signal;HPM_P1;HPM_P2
2023/12/19 00:02:08;;;;;;;1.80;1.70;;;;;;;;;;4882263;29;20039;-78
2023/12/19 00:04:34;;;;;;;1.17;1.17;;;;;;;;;;4913115;29;20561;-79
2023/12/19 00:07:00;;;;;;;1.33;1.33;;;;;;;;;;4912408;29;20495;-76
2023/12/19 00:09:27;;;;;;;1.58;1.58;;;;;;;;;;4912678;29;20054;-79
2023/12/19 00:11:53;;;;;;;1.58;1.58;;;;;;;;;;4895839;29;20056;-78
2023/12/19 00:14:19;;;;;;;1.67;1.58;;;;;;;;;;4914382;29;20043;-79
2023/12/19 00:16:45;;;;;;;1.20;1.20;;;;;;;;;;4896743;29;20040;-78
2023/12/19 00:19:11;;;;;;;1.63;1.52;;;;;;;;;;4889562;29;20036;-80
2023/12/19 00:21:37;;;;;;;0.80;0.80;;;;;;;;;;4912861;29;20047;-79
2023/12/19 00:24:03;;;;;;;2.40;2.30;;;;;;;;;;4912415;29;20039;-80
2023/12/19 00:26:29;;;;;;;1.23;1.23;;;;;;;;;;4914800;29;20522;-79
2023/12/19 00:28:55;;;;;;;2.97;1.60;;;;;;;;;;4912755;29;20040;-79
2023/12/19 00:31:22;;;;;;;5.30;2.47;;;;;;;;;;4897095;29;20052;-79
2023/12/19 00:33:48;;;;;;;1.55;1.48;;;;;;;;;;4914583;29;20044;-79
2023/12/19 00:36:19;;;;;;;4.55;2.10;;;;;;;;;;4928317;29;20044;-79
2023/12/19 00:38:45;;;;;;;2.03;1.92;;;;;;;;;;4922978;29;20131;-79
2023/12/19 00:41:12;;;;;;;1.88;1.77;;;;;;;;;;4899243;29;20047;-80
2023/12/19 00:43:37;;;;;;;3.22;2.40;;;;;;;;;;4877022;29;20048;-79
2023/12/19 00:46:03;;;;;;;3.17;2.28;;;;;;;;;;4911920;29;20071;-79
2023/12/19 00:48:31;;;;;;;2.45;2.25;;;;;;;;;;4894781;29;20040;-78
2023/12/19 00:50:56;;;;;;;2.20;2.05;;;;;;;;;;4863295;29;20048;-79
2023/12/19 00:53:23;;;;;;;1.98;1.20;;;;;;;;;;4913808;29;20072;-79
2023/12/19 00:55:49;;;;;;;3.10;1.80;;;;;;;;;;4913167;29;20040;-81
2023/12/19 00:58:14;;;;;;;2.28;1.88;;;;;;;;;;4911588;29;20032;-78
2023/12/19 01:00:40;;;;;;;1.92;1.83;;;;;;;;;;4894758;29;20051;-78
2023/12/19 01:03:06;;;;;;;1.60;1.60;;;;;;;;;;4894298;29;20043;-78
2023/12/19 01:05:32;;;;;;;1.10;1.10;;;;;;;;;;4914430;29;20574;-79
2023/12/19 01:07:58;;;;;;;2.05;1.95;;;;;;;;;;4895594;29;20499;-80
2023/12/19 01:10:24;;;;;;;1.98;1.98;;;;;;;;;;4912099;29;20027;-79
2023/12/19 01:12:50;;;;;;;1.98;1.88;;;;;;;;;;4895024;29;20040;-81
2023/12/19 01:15:16;;;;;;;2.28;2.17;;;;;;;;;;4880967;29;20036;-80
2023/12/19 01:17:42;;;;;;;2.70;2.55;;;;;;;;;;4914287;29;20505;-80
2023/12/19 01:20:09;;;;;;;3.22;3.03;;;;;;;;;;4896530;29;20042;-81
2023/12/19 01:22:35;;;;;;;2.38;2.28;;;;;;;;;;4912987;29;20107;-78
2023/12/19 01:25:01;;;;;;;3.88;3.17;;;;;;;;;;4894529;29;20051;-80
2023/12/19 01:27:27;;;;;;;3.00;1.95;;;;;;;;;;4912303;29;20028;-78
2023/12/19 01:29:53;;;;;;;2.25;2.15;;;;;;;;;;4911622;29;20483;-80
2023/12/19 01:32:18;;;;;;;2.13;2.03;;;;;;;;;;4913563;29;20040;-80
2023/12/19 01:34:44;;;;;;;1.20;1.20;;;;;;;;;;4894893;29;20063;-79
2023/12/19 01:37:10;;;;;;;1.23;1.23;;;;;;;;;;4911303;29;20499;-79
2023/12/19 01:39:36;;;;;;;2.47;2.30;;;;;;;;;;4911069;29;20036;-79
2023/12/19 01:42:02;;;;;;;2.13;2.03;;;;;;;;;;4910808;29;20032;-79
2023/12/19 01:44:28;;;;;;;2.67;2.40;;;;;;;;;;4913310;29;20499;-79
2023/12/19 01:46:57;;;;;;;4.28;2.50;;;;;;;;;;4910927;29;20050;-79
2023/12/19 01:49:22;;;;;;;2.88;2.65;;;;;;;;;;4894650;29;20126;-80
2023/12/19 01:51:48;;;;;;;2.50;2.38;;;;;;;;;;4878410;29;20164;-80
2023/12/19 01:54:14;;;;;;;4.30;2.88;;;;;;;;;;4893617;29;20792;-78
2023/12/19 01:56:40;;;;;;;2.88;2.78;;;;;;;;;;4864012;29;20491;-78
2023/12/19 01:59:06;;;;;;;2.78;2.58;;;;;;;;;;4911963;29;20067;-79
2023/12/19 02:01:33;;;;;;;3.60;3.40;;;;;;;;;;4864332;29;20107;-79
2023/12/19 02:03:59;;;;;;;3.65;3.45;;;;;;;;;;4911024;29;20040;-79
2023/12/19 02:06:24;;;;;;;4.00;3.72;;;;;;;;;;4880281;29;20028;-79
2023/12/19 02:08:51;;;;;;;4.40;4.10;;;;;;;;;;4876294;29;20499;-79
2023/12/19 02:11:17;;;;;;;5.53;5.03;;;;;;;;;;4891310;29;20114;-79
2023/12/19 02:13:42;;;;;;;2.13;2.03;;;;;;;;;;4894040;29;20051;-79
2023/12/19 02:16:08;;;;;;;3.75;3.45;;;;;;;;;;4909924;29;20037;-79
2023/12/19 02:18:35;;;;;;;3.58;3.38;;;;;;;;;;4912509;29;20039;-78
2023/12/19 02:21:20;;;;;;;4.13;3.72;;;;;;;;;;4897527;29;20131;-79
2023/12/19 02:23:46;;;;;;;4.47;3.95;;;;;;;;;;4910730;29;20192;-79
2023/12/19 02:26:12;;;;;;;2.67;2.58;;;;;;;;;;4893708;29;20066;-79
2023/12/19 02:28:39;;;;;;;3.28;3.08;;;;;;;;;;4910380;29;20502;-78
2023/12/19 02:31:05;;;;;;;3.30;3.10;;;;;;;;;;4910003;29;20045;-78
2023/12/19 02:33:30;;;;;;;2.80;2.67;;;;;;;;;;4912106;29;20047;-78
2023/12/19 02:35:56;;;;;;;2.97;2.80;;;;;;;;;;4910092;29;20032;-79
2023/12/19 02:38:22;;;;;;;3.80;3.50;;;;;;;;;;4910497;29;20036;-77
2023/12/19 02:40:48;;;;;;;2.55;2.45;;;;;;;;;;4910192;29;20059;-79
2023/12/19 02:43:14;;;;;;;4.15;3.85;;;;;;;;;;4878819;29;20036;-78
2023/12/19 02:45:40;;;;;;;4.25;3.85;;;;;;;;;;4910149;29;20036;-80
2023/12/19 02:48:06;;;;;;;4.82;4.18;;;;;;;;;;4910576;29;20037;-79
2023/12/19 02:50:32;;;;;;;3.92;3.63;;;;;;;;;;4894844;29;20052;-78
2023/12/19 02:52:58;;;;;;;3.95;3.65;;;;;;;;;;4894497;29;20052;-79
2023/12/19 02:55:24;;;;;;;4.63;4.28;;;;;;;;;;4910397;29;20032;-78
2023/12/19 02:57:50;;;;;;;4.18;3.88;;;;;;;;;;4893031;29;20111;-78
2023/12/19 03:00:16;;;;;;;2.97;2.78;;;;;;;;;;4893033;29;20515;-77
2023/12/19 03:02:42;;;;;;;3.50;3.10;;;;;;;;;;4876774;29;20077;-78
2023/12/19 03:05:08;;;;;;;2.17;2.08;;;;;;;;;;4894594;29;20064;-79
2023/12/19 03:07:34;;;;;;;2.50;2.40;;;;;;;;;;4910692;29;20874;-77
2023/12/19 03:10:05;;;;;;;1.98;1.88;;;;;;;;;;4893937;29;20507;-79
2023/12/19 03:12:32;;;;;;;2.25;1.80;;;;;;;;;;4878833;29;20048;-79
2023/12/19 03:14:58;;;;;;;1.85;1.70;;;;;;;;;;4911859;29;20040;-78
2023/12/19 03:17:23;;;;;;;1.65;1.63;;;;;;;;;;4913924;29;20038;-78
2023/12/19 03:19:49;;;;;;;2.08;1.98;;;;;;;;;;4911814;29;20036;-79
2023/12/19 03:22:15;;;;;;;1.45;1.45;;;;;;;;;;4911722;29;20047;-77
2023/12/19 03:24:41;;;;;;;1.65;1.55;;;;;;;;;;4896316;29;20038;-78
2023/12/19 03:27:07;;;;;;;1.55;1.48;;;;;;;;;;4918457;29;20037;-77
2023/12/19 03:29:34;;;;;;;1.80;1.70;;;;;;;;;;4915580;29;20040;-79
2023/12/19 03:32:00;;;;;;;1.95;1.85;;;;;;;;;;4895194;29;20134;-79
2023/12/19 03:34:26;;;;;;;1.45;1.45;;;;;;;;;;4896597;29;20135;-78
2023/12/19 03:36:52;;;;;;;2.30;2.20;;;;;;;;;;4914758;29;20337;-78
2023/12/19 03:39:18;;;;;;;2.13;2.03;;;;;;;;;;4913564;29;20043;-78
2023/12/19 03:41:44;;;;;;;2.05;1.95;;;;;;;;;;4892531;29;20422;-78
2023/12/19 03:44:10;;;;;;;1.58;1.58;;;;;;;;;;4896827;29;20116;-78
2023/12/19 03:46:36;;;;;;;2.03;1.92;;;;;;;;;;4912234;29;20523;-78
2023/12/19 03:49:02;;;;;;;4.15;2.00;;;;;;;;;;4895228;29;20043;-79
2023/12/19 03:51:28;;;;;;;1.38;1.38;;;;;;;;;;4911268;29;20111;-78
2023/12/19 03:53:54;;;;;;;1.95;1.85;;;;;;;;;;4888523;29;20127;-78
2023/12/19 03:56:19;;;;;;;1.77;1.67;;;;;;;;;;4897728;29;20071;-78
2023/12/19 03:58:45;;;;;;;2.08;1.98;;;;;;;;;;4896983;29;20055;-78
2023/12/19 04:01:12;;;;;;;3.30;3.10;;;;;;;;;;4892123;29;20028;-80
2023/12/19 04:03:38;;;;;;;3.50;3.20;;;;;;;;;;4908665;29;20052;-76
2023/12/19 04:06:04;;;;;;;4.22;3.88;;;;;;;;;;4913311;29;20032;-77
2023/12/19 04:08:31;;;;;;;8.80;4.35;;;;;;;;;;4897981;29;20046;-78
2023/12/19 04:10:57;;;;;;;2.90;2.70;;;;;;;;;;4912410;29;20035;-78
2023/12/19 04:13:23;;;;;;;2.80;2.60;;;;;;;;;;4912974;29;20392;-78
2023/12/19 04:15:48;;;;;;;3.90;3.25;;;;;;;;;;4896394;29;20032;-77
2023/12/19 04:18:15;;;;;;;3.83;3.58;;;;;;;;;;4912847;29;20049;-77
2023/12/19 04:20:41;;;;;;;3.15;2.95;;;;;;;;;;4914655;29;20032;-76
2023/12/19 04:23:07;;;;;;;3.50;3.20;;;;;;;;;;4914980;29;20070;-77
2023/12/19 04:25:33;;;;;;;3.10;2.80;;;;;;;;;;4897631;29;20536;-77
2023/12/19 04:27:58;;;;;;;2.15;1.95;;;;;;;;;;4915286;29;20055;-77
2023/12/19 04:30:24;;;;;;;2.90;2.70;;;;;;;;;;4895393;29;20507;-76
2023/12/19 04:32:51;;;;;;;2.75;2.58;;;;;;;;;;4905935;29;20039;-76
2023/12/19 04:35:17;;;;;;;2.65;2.03;;;;;;;;;;4922547;29;20439;-76
2023/12/19 04:37:43;;;;;;;2.17;2.08;;;;;;;;;;4914779;29;20064;-75
2023/12/19 04:40:09;;;;;;;2.58;2.42;;;;;;;;;;4893586;29;20101;-75
2023/12/19 04:42:35;;;;;;;2.53;2.42;;;;;;;;;;4902835;29;20036;-75
2023/12/19 04:45:01;;;;;;;2.83;2.55;;;;;;;;;;4913075;29;20082;-75
2023/12/19 04:47:29;;;;;;;1.92;1.83;;;;;;;;;;4912486;29;20040;-75
2023/12/19 04:49:55;;;;;;;1.45;1.42;;;;;;;;;;4894552;29;20140;-75
2023/12/19 04:52:21;;;;;;;1.60;1.50;;;;;;;;;;4913670;29;20048;-75
2023/12/19 04:54:47;;;;;;;1.60;1.60;;;;;;;;;;4912641;29;20600;-75
2023/12/19 04:57:13;;;;;;;1.60;1.50;;;;;;;;;;4890221;29;20088;-75
2023/12/19 04:59:39;;;;;;;4.70;4.13;;;;;;;;;;4908628;29;20518;-74
2023/12/19 05:02:05;;;;;;;4.10;3.80;;;;;;;;;;4911555;29;20032;-75
2023/12/19 05:04:31;;;;;;;1.92;1.83;;;;;;;;;;4913994;29;20035;-75
2023/12/19 05:06:57;;;;;;;2.20;2.10;;;;;;;;;;4911766;29;20032;-75
2023/12/19 05:09:23;;;;;;;2.00;1.90;;;;;;;;;;4911009;29;20768;-75
2023/12/19 05:11:49;;;;;;;1.80;1.80;;;;;;;;;;4895627;29;20072;-75
2023/12/19 05:14:15;;;;;;;1.60;1.50;;;;;;;;;;4910951;29;20036;-75
2023/12/19 05:16:40;;;;;;;1.10;1.10;;;;;;;;;;4912913;29;20047;-75
2023/12/19 05:19:06;;;;;;;2.08;1.98;;;;;;;;;;4894601;29;20460;-75
2023/12/19 05:21:38;;;;;;;2.50;2.40;;;;;;;;;;4910775;29;20064;-75
2023/12/19 05:24:04;;;;;;;2.20;2.10;;;;;;;;;;4890607;29;20028;-75
2023/12/19 05:26:30;;;;;;;1.70;1.70;;;;;;;;;;4894289;29;20506;-75
2023/12/19 05:28:56;;;;;;;1.95;1.85;;;;;;;;;;4911156;29;20039;-75
2023/12/19 05:31:22;;;;;;;1.38;1.38;;;;;;;;;;4895476;29;20044;-76
2023/12/19 05:33:48;;;;;;;1.50;1.50;;;;;;;;;;4912009;29;20478;-75
2023/12/19 05:36:14;;;;;;;4.07;3.78;;;;;;;;;;4897364;29;20123;-76
2023/12/19 05:38:40;;;;;;;3.78;3.50;;;;;;;;;;4895580;29;20044;-75
2023/12/19 05:41:05;;;;;;;4.68;4.30;;;;;;;;;;4910610;29;20538;-76
2023/12/19 05:43:31;;;;;;;3.65;3.35;;;;;;;;;;4887605;29;20039;-75
2023/12/19 05:45:59;;;;;;;4.07;3.60;;;;;;;;;;4912178;29;20203;-76
2023/12/19 05:48:24;;;;;;;5.85;4.15;;;;;;;;;;4898169;29;20056;-77
2023/12/19 05:50:50;;;;;;;3.33;3.00;;;;;;;;;;4894162;29;20090;-75
2023/12/19 05:53:16;;;;;;;2.92;2.72;;;;;;;;;;4874331;29;20056;-75
2023/12/19 05:55:42;;;;;;;2.00;1.90;;;;;;;;;;4906557;29;20039;-75
2023/12/19 05:58:08;;;;;;;3.20;3.00;;;;;;;;;;4911074;29;20435;-75
2023/12/19 06:00:34;;;;;;;2.53;2.35;;;;;;;;;;4908510;29;20042;-75
2023/12/19 06:03:00;;;;;;;2.17;2.08;;;;;;;;;;4895042;29;20044;-75
2023/12/19 06:05:26;;;;;;;2.10;2.00;;;;;;;;;;4892267;29;20521;-69
2023/12/19 06:07:52;;;;;;;1.42;1.42;;;;;;;;;;4909667;29;20040;-70
2023/12/19 06:10:18;;;;;;;1.25;1.25;;;;;;;;;;4905065;29;20055;-69
2023/12/19 06:12:44;;;;;;;1.55;1.45;;;;;;;;;;4902780;29;20048;-69
2023/12/19 06:15:13;;;;;;;1.95;1.85;;;;;;;;;;4905407;29;20056;-70
2023/12/19 06:17:43;;;;;;;1.60;1.50;;;;;;;;;;4911292;29;20631;-69
2023/12/19 06:20:10;;;;;;;2.42;2.05;;;;;;;;;;4905591;29;20028;-69
2023/12/19 06:22:36;;;;;;;1.83;1.73;;;;;;;;;;4906607;29;20131;-70
2023/12/19 06:25:02;;;;;;;1.50;1.40;;;;;;;;;;4896975;29;20039;-69
2023/12/19 06:27:30;;;;;;;1.85;1.83;;;;;;;;;;4910344;29;20039;-70
2023/12/19 06:29:56;;;;;;;1.73;1.73;;;;;;;;;;4887899;29;20036;-69
2023/12/19 06:32:22;;;;;;;1.88;1.80;;;;;;;;;;4910890;29;20115;-69
2023/12/19 06:34:47;;;;;;;1.02;1.02;;;;;;;;;;4889846;29;20025;-70
2023/12/19 06:37:13;;;;;;;2.15;2.05;;;;;;;;;;4909553;29;20028;-70
2023/12/19 06:39:39;;;;;;;2.15;2.10;;;;;;;;;;4910560;29;20443;-70
2023/12/19 06:42:05;;;;;;;2.05;1.95;;;;;;;;;;4901240;29;20055;-69
2023/12/19 06:44:31;;;;;;;2.50;2.33;;;;;;;;;;4909661;29;20118;-70
2023/12/19 06:46:57;;;;;;;1.95;1.70;;;;;;;;;;4908985;29;20127;-71
2023/12/19 06:49:22;;;;;;;3.08;2.53;;;;;;;;;;4908173;29;20043;-71
2023/12/19 06:51:48;;;;;;;2.03;1.92;;;;;;;;;;4907065;29;20090;-70
2023/12/19 06:54:14;;;;;;;2.15;1.80;;;;;;;;;;4909705;29;20039;-71
2023/12/19 06:56:40;;;;;;;3.13;2.80;;;;;;;;;;4891439;29;20048;-71
2023/12/19 06:59:06;;;;;;;2.50;2.40;;;;;;;;;;4905041;29;20510;-71
2023/12/19 07:01:32;;;;;;;2.83;1.83;;;;;;;;;;4889737;29;20036;-71
2023/12/19 07:03:58;;;;;;;1.67;1.58;;;;;;;;;;4891081;29;20039;-70
2023/12/19 07:06:24;;;;;;;1.92;1.83;;;;;;;;;;4894299;29;20047;-70
2023/12/19 07:08:50;;;;;;;1.52;1.42;;;;;;;;;;4890639;29;20504;-70
2023/12/19 07:11:16;;;;;;;2.13;2.03;;;;;;;;;;4912557;29;20059;-71
2023/12/19 07:13:43;;;;;;;2.20;2.10;;;;;;;;;;4912248;29;20043;-70
2023/12/19 07:16:16;;;;;;;2.42;2.33;;;;;;;;;;4898453;29;20047;-70
2023/12/19 07:18:43;;;;;;;2.38;2.20;;;;;;;;;;4898115;29;20032;-70
2023/12/19 07:21:17;;;;;;;1.92;1.80;;;;;;;;;;4914514;29;20044;-69
2023/12/19 07:23:43;;;;;;;1.88;1.83;;;;;;;;;;4889222;29;20091;-71
2023/12/19 07:26:18;;;;;;;2.35;2.25;;;;;;;;;;4913212;29;20163;-70
2023/12/19 07:28:44;;;;;;;1.73;1.63;;;;;;;;;;4895608;29;20522;-71
2023/12/19 07:31:17;;;;;;;2.97;2.65;;;;;;;;;;4912744;29;20036;-71
2023/12/19 07:33:43;;;;;;;2.35;2.22;;;;;;;;;;4915879;29;20126;-71
2023/12/19 07:36:10;;;;;;;2.92;2.72;;;;;;;;;;4888262;29;20130;-70
2023/12/19 07:38:36;;;;;;;3.25;2.78;;;;;;;;;;4910344;29;20046;-70
2023/12/19 07:41:01;;;;;;;8.60;4.60;;;;;;;;;;4879991;29;20031;-70
2023/12/19 07:43:29;;;;;;;2.25;2.15;;;;;;;;;;4888336;29;20134;-70
2023/12/19 07:45:54;;;;;;;3.45;3.25;;;;;;;;;;4896892;29;20036;-69
2023/12/19 07:48:21;;;;;;;3.75;3.55;;;;;;;;;;4895832;29;20032;-69
2023/12/19 07:50:47;;;;;;;6.28;2.85;;;;;;;;;;4912799;29;20434;-70
2023/12/19 07:53:13;;;;;;;3.42;3.13;;;;;;;;;;4896298;29;20044;-71
2023/12/19 07:55:39;;;;;;;2.90;2.70;;;;;;;;;;4896081;29;20606;-70
2023/12/19 07:58:06;;;;;;;3.50;3.20;;;;;;;;;;4913635;29;20510;-70
2023/12/19 08:00:33;;;;;;;2.13;2.03;;;;;;;;;;4896337;29;20047;-71
2023/12/19 08:03:01;;;;;;;2.17;2.08;;;;;;;;;;4866544;29;20063;-70
2023/12/19 08:05:27;;;;;;;3.13;2.92;;;;;;;;;;4898202;29;20072;-71
2023/12/19 08:07:52;;;;;;;2.13;2.03;;;;;;;;;;4917226;29;20052;-70
2023/12/19 08:10:19;;;;;;;2.83;2.63;;;;;;;;;;4896486;29;20067;-71
2023/12/19 08:12:45;;;;;;;3.58;3.28;;;;;;;;;;4913160;29;20095;-69
2023/12/19 08:15:12;;;;;;;2.92;2.83;;;;;;;;;;4912153;29;20488;-70
2023/12/19 08:17:38;;;;;;;3.20;3.00;;;;;;;;;;4896486;29;20043;-69
2023/12/19 08:20:04;;;;;;;3.38;3.17;;;;;;;;;;4893960;29;20036;-70
2023/12/19 08:22:30;;;;;;;2.05;1.95;;;;;;;;;;4896536;29;20044;-70
2023/12/19 08:24:56;;;;;;;2.50;2.28;;;;;;;;;;4913384;29;20138;-70
2023/12/19 08:27:26;;;;;;;3.00;2.80;;;;;;;;;;4896603;29;20067;-71
2023/12/19 08:29:52;;;;;;;2.45;2.35;;;;;;;;;;4896149;29;20515;-71
2023/12/19 08:32:18;;;;;;;2.80;2.70;;;;;;;;;;4880060;29;20059;-72
2023/12/19 08:34:43;;;;;;;2.33;2.22;;;;;;;;;;4895803;29;20036;-71
2023/12/19 08:37:09;;;;;;;3.85;3.60;;;;;;;;;;4896481;29;20050;-71
2023/12/19 08:39:35;;;;;;;3.78;3.10;;;;;;;;;;4885898;29;20035;-71
2023/12/19 08:42:01;;;;;;;3.72;2.25;;;;;;;;;;4896193;29;20051;-71
2023/12/19 08:44:27;;;;;;;2.60;2.50;;;;;;;;;;4911964;29;20028;-72
2023/12/19 08:46:53;;;;;;;2.38;2.28;;;;;;;;;;4913269;29;20082;-72
2023/12/19 08:49:18;;;;;;;2.72;2.55;;;;;;;;;;4911304;29;20028;-72
2023/12/19 08:51:47;;;;;;;2.38;2.28;;;;;;;;;;4912309;29;20499;-71
2023/12/19 08:54:13;;;;;;;2.70;2.50;;;;;;;;;;4912011;29;20115;-71
2023/12/19 08:56:38;;;;;;;2.50;2.40;;;;;;;;;;4895411;29;20132;-70
2023/12/19 08:59:04;;;;;;;2.60;2.50;;;;;;;;;;4895412;29;20511;-69
2023/12/19 09:01:31;;;;;;;3.20;3.00;;;;;;;;;;4912591;29;20044;-70
2023/12/19 09:03:56;;;;;;;2.20;2.10;;;;;;;;;;4911075;29;20042;-70
2023/12/19 09:06:22;;;;;;;2.35;2.22;;;;;;;;;;4896244;29;20098;-70
2023/12/19 09:08:51;;;;;;;2.33;2.15;;;;;;;;;;4896413;29;20464;-70
2023/12/19 09:11:17;;;;;;;1.77;1.75;;;;;;;;;;4919816;29;20534;-71
2023/12/19 09:13:46;;;;;;;2.30;2.20;;;;;;;;;;4931422;29;20046;-70
2023/12/19 09:16:11;;;;;;;1.75;1.70;;;;;;;;;;4927525;29;20042;-71
2023/12/19 09:18:37;;;;;;;1.80;1.75;;;;;;;;;;4914107;29;20036;-71
2023/12/19 09:21:03;;;;;;;2.60;2.40;;;;;;;;;;4885950;29;20043;-71
2023/12/19 09:23:30;;;;;;;1.88;1.77;;;;;;;;;;4914383;29;20093;-70
2023/12/19 09:25:56;;;;;;;2.80;2.60;;;;;;;;;;4882318;29;20527;-71
2023/12/19 09:28:23;;;;;;;2.90;2.70;;;;;;;;;;4909590;29;20542;-71
2023/12/19 09:30:49;;;;;;;2.45;2.28;;;;;;;;;;4912249;29;20602;-71
2023/12/19 09:33:15;;;;;;;2.65;2.45;;;;;;;;;;4912129;29;20036;-71
2023/12/19 09:35:41;;;;;;;2.20;2.10;;;;;;;;;;4898715;29;20037;-71
2023/12/19 09:38:07;;;;;;;2.15;2.05;;;;;;;;;;4891305;29;20044;-72
2023/12/19 09:40:33;;;;;;;2.05;1.95;;;;;;;;;;4895059;29;20570;-71
2023/12/19 09:42:59;;;;;;;3.17;2.97;;;;;;;;;;4912633;29;20498;-72
2023/12/19 09:45:28;;;;;;;2.10;2.00;;;;;;;;;;4910457;29;20039;-71
2023/12/19 09:47:57;;;;;;;2.22;2.10;;;;;;;;;;4914013;29;20712;-72
2023/12/19 09:50:23;;;;;;;2.40;2.30;;;;;;;;;;4925507;29;20729;-72
2023/12/19 09:52:49;;;;;;;3.20;3.00;;;;;;;;;;4913832;29;20122;-72
2023/12/19 09:55:15;;;;;;;2.17;2.08;;;;;;;;;;4912176;29;20518;-72
2023/12/19 09:57:41;;;;;;;2.35;1.70;;;;;;;;;;4861362;29;20045;-71
2023/12/19 10:00:09;;;;;;;5.85;2.25;;;;;;;;;;4866991;29;20052;-71
2023/12/19 10:02:37;;;;;;;1.25;1.25;;;;;;;;;;4887423;29;20046;-71
2023/12/19 10:05:04;;;;;;;2.40;2.30;;;;;;;;;;4875396;29;20041;-72
2023/12/19 10:07:30;;;;;;;2.08;1.98;;;;;;;;;;4907140;29;20126;-71
2023/12/19 10:09:56;;;;;;;1.67;1.58;;;;;;;;;;4893523;29;20084;-71
2023/12/19 10:12:27;;;;;;;1.85;1.75;;;;;;;;;;4905316;29;20047;-72
2023/12/19 10:15:10;;;;;;;2.03;1.93;;;;;;;;;;4872946;29;20033;-72
2023/12/19 10:17:37;;;;;;;2.50;2.40;;;;;;;;;;4911797;29;20131;-71
2023/12/19 10:20:10;;;;;;;3.15;2.95;;;;;;;;;;4894860;29;20229;-70
2023/12/19 10:22:37;;;;;;;2.92;2.72;;;;;;;;;;4898847;29;20071;-70
2023/12/19 10:25:03;;;;;;;2.33;2.22;;;;;;;;;;4879332;29;20040;-71
2023/12/19 10:27:30;;;;;;;2.30;2.15;;;;;;;;;;4911331;29;20423;-70
2023/12/19 10:30:14;;;;;;;2.60;2.50;;;;;;;;;;4894126;29;20119;-71
2023/12/19 10:32:41;;;;;;;2.42;2.22;;;;;;;;;;4875355;29;20147;-71
2023/12/19 10:35:07;;;;;;;2.53;2.42;;;;;;;;;;4898345;29;20040;-70
2023/12/19 10:37:33;;;;;;;2.42;2.33;;;;;;;;;;4912487;29;20049;-69
2023/12/19 10:40:19;;;;;;;2.83;2.63;;;;;;;;;;4899257;29;20023;-70
2023/12/19 10:42:58;;;;;;;2.35;2.13;;;;;;;;;;4887476;29;20036;-69
2023/12/19 10:45:24;;;;;;;2.83;2.63;;;;;;;;;;4909977;29;20036;-71
2023/12/19 10:47:51;;;;;;;2.28;2.10;;;;;;;;;;4879854;29;20471;-70
2023/12/19 10:50:19;;;;;;;2.60;2.40;;;;;;;;;;4895933;29;20218;-71
2023/12/19 10:52:45;;;;;;;2.92;2.72;;;;;;;;;;4898844;29;20046;-70
2023/12/19 10:55:15;;;;;;;2.85;2.65;;;;;;;;;;4897597;29;20035;-71
2023/12/19 10:57:41;;;;;;;2.25;2.15;;;;;;;;;;4900533;29;20032;-71
2023/12/19 11:00:10;;;;;;;3.78;3.40;;;;;;;;;;4897780;29;20028;-71
2023/12/19 11:02:40;;;;;;;3.03;2.83;;;;;;;;;;4915053;29;20047;-71
2023/12/19 11:05:09;;;;;;;4.57;2.78;;;;;;;;;;4914449;29;20040;-70
2023/12/19 11:07:35;;;;;;;2.92;2.72;;;;;;;;;;4914924;29;20499;-71
2023/12/19 11:10:04;;;;;;;2.60;2.40;;;;;;;;;;4915422;29;20055;-71
2023/12/19 11:12:31;;;;;;;4.85;4.45;;;;;;;;;;4900104;29;20490;-70
2023/12/19 11:14:57;;;;;;;3.45;3.22;;;;;;;;;;4915488;29;20032;-70
2023/12/19 11:17:26;;;;;;;1.92;1.83;;;;;;;;;;4916322;29;20177;-71
2023/12/19 11:20:03;;;;;;;4.13;3.72;;;;;;;;;;4898253;29;20411;-71
2023/12/19 11:22:31;;;;;;;3.05;2.85;;;;;;;;;;4882329;29;20048;-71
2023/12/19 11:25:07;;;;;;;3.45;3.22;;;;;;;;;;4878924;29;20032;-71
2023/12/19 11:27:41;;;;;;;2.38;2.20;;;;;;;;;;4895977;29;20128;-72
2023/12/19 11:30:11;;;;;;;4.25;2.45;;;;;;;;;;4899301;29;20032;-72
2023/12/19 11:32:40;;;;;;;3.15;2.95;;;;;;;;;;4891529;29;20059;-71
2023/12/19 11:35:09;;;;;;;3.40;3.13;;;;;;;;;;4913917;29;20083;-71
2023/12/19 11:37:37;;;;;;;3.08;2.88;;;;;;;;;;4897569;29;20539;-72
2023/12/19 11:40:08;;;;;;;3.20;3.00;;;;;;;;;;4879415;29;20065;-71
2023/12/19 11:42:37;;;;;;;2.83;2.63;;;;;;;;;;4868971;29;20047;-72
2023/12/19 11:45:16;;;;;;;4.35;4.05;;;;;;;;;;4928890;29;20040;-71
2023/12/19 11:47:45;;;;;;;4.57;4.28;;;;;;;;;;4873518;29;20806;-72
2023/12/19 11:50:11;;;;;;;4.53;4.13;;;;;;;;;;4887178;29;20049;-72
2023/12/19 11:52:39;;;;;;;3.92;3.63;;;;;;;;;;4897007;29;20048;-71
2023/12/19 11:55:05;;;;;;;3.42;2.75;;;;;;;;;;4896513;29;20092;-70
2023/12/19 11:57:33;;;;;;;3.60;3.40;;;;;;;;;;4914082;29;20562;-72
2023/12/19 12:00:00;;;;;;;3.83;3.63;;;;;;;;;;4913800;29;20119;-70
2023/12/19 12:02:29;;;;;;;3.03;2.83;;;;;;;;;;4896793;29;20039;-70
2023/12/19 12:05:08;;;;;;;3.13;3.00;;;;;;;;;;4914989;29;20542;-70
2023/12/19 12:07:42;;;;;;;10.13;2.63;;;;;;;;;;4878675;29;20052;-71
2023/12/19 12:10:09;;;;;;;3.28;3.08;;;;;;;;;;4867451;29;20040;-71
2023/12/19 12:12:35;;;;;;;2.72;2.63;;;;;;;;;;4924098;29;20138;-70
2023/12/19 12:15:05;;;;;;;3.00;2.80;;;;;;;;;;4915699;29;20169;-71
2023/12/19 12:17:33;;;;;;;2.95;2.85;;;;;;;;;;4877956;29;20048;-71
2023/12/19 12:19:59;;;;;;;3.85;3.55;;;;;;;;;;4877958;29;20055;-71
2023/12/19 12:22:25;;;;;;;2.90;2.78;;;;;;;;;;4877489;29;20508;-71
2023/12/19 12:24:54;;;;;;;3.33;3.13;;;;;;;;;;4892485;29;20059;-71
2023/12/19 12:27:20;;;;;;;4.22;3.92;;;;;;;;;;4912950;29;20072;-70
2023/12/19 12:29:46;;;;;;;3.60;3.35;;;;;;;;;;4913405;29;20032;-70
2023/12/19 12:32:12;;;;;;;2.75;2.55;;;;;;;;;;4880107;29;20075;-70
2023/12/19 12:34:39;;;;;;;3.08;2.88;;;;;;;;;;4905453;29;20035;-70
2023/12/19 12:37:05;;;;;;;3.03;2.83;;;;;;;;;;4902353;29;20048;-70
2023/12/19 12:39:31;;;;;;;4.40;4.10;;;;;;;;;;4929580;29;20067;-70
2023/12/19 12:42:00;;;;;;;2.75;2.60;;;;;;;;;;4907612;29;20066;-69
2023/12/19 12:44:26;;;;;;;2.05;1.95;;;;;;;;;;4895447;29;20036;-70
2023/12/19 12:46:52;;;;;;;2.92;2.72;;;;;;;;;;4913121;29;20068;-69
2023/12/19 12:49:21;;;;;;;3.33;3.10;;;;;;;;;;4912442;29;20036;-70
2023/12/19 12:51:47;;;;;;;3.28;3.08;;;;;;;;;;4912982;29;20044;-69
2023/12/19 12:54:16;;;;;;;3.65;3.35;;;;;;;;;;4912726;29;20044;-70
2023/12/19 12:56:42;;;;;;;3.13;2.83;;;;;;;;;;4884925;29;20028;-70
2023/12/19 12:59:09;;;;;;;2.95;2.75;;;;;;;;;;4895913;29;20100;-69
2023/12/19 13:01:35;;;;;;;2.95;2.75;;;;;;;;;;4913143;29;20117;-69
2023/12/19 13:04:02;;;;;;;2.60;2.40;;;;;;;;;;4913042;29;20065;-69
2023/12/19 13:06:28;;;;;;;2.00;1.90;;;;;;;;;;4903592;29;20028;-69
2023/12/19 13:08:54;;;;;;;3.55;2.90;;;;;;;;;;4877428;29;20044;-69
2023/12/19 13:11:23;;;;;;;3.22;3.03;;;;;;;;;;4890989;29;20447;-68
2023/12/19 13:13:50;;;;;;;3.08;2.88;;;;;;;;;;4895773;29;20106;-70
2023/12/19 13:16:18;;;;;;;2.00;1.90;;;;;;;;;;4894958;29;20047;-69
2023/12/19 13:18:44;;;;;;;2.80;2.60;;;;;;;;;;4895795;29;20062;-69
2023/12/19 13:21:12;;;;;;;2.67;2.47;;;;;;;;;;4906616;29;20499;-70
2023/12/19 13:23:38;;;;;;;2.45;2.25;;;;;;;;;;4904136;29;20633;-69
2023/12/19 13:26:06;;;;;;;2.28;2.10;;;;;;;;;;4905073;29;20037;-70
2023/12/19 13:28:32;;;;;;;2.30;2.20;;;;;;;;;;4876646;29;20037;-70
2023/12/19 13:30:58;;;;;;;2.72;2.53;;;;;;;;;;4876416;29;20028;-71
2023/12/19 13:33:24;;;;;;;2.28;2.08;;;;;;;;;;4896991;29;20713;-71
2023/12/19 13:35:50;;;;;;;2.85;2.65;;;;;;;;;;4911479;29;20490;-71
2023/12/19 13:38:18;;;;;;;2.50;2.40;;;;;;;;;;4894745;29;20043;-73
2023/12/19 13:40:44;;;;;;;1.40;1.40;;;;;;;;;;4911772;29;20040;-72
2023/12/19 13:43:10;;;;;;;2.40;2.20;;;;;;;;;;4911676;29;20036;-72
2023/12/19 13:45:36;;;;;;;1.60;1.50;;;;;;;;;;4911714;29;20051;-72
2023/12/19 13:48:02;;;;;;;2.42;2.20;;;;;;;;;;4894660;29;20035;-72
2023/12/19 13:50:28;;;;;;;2.83;2.22;;;;;;;;;;4894557;29;20056;-72
2023/12/19 13:52:54;;;;;;;2.08;1.98;;;;;;;;;;4895350;29;20059;-72
2023/12/19 13:55:20;;;;;;;2.63;2.42;;;;;;;;;;4894808;29;20411;-72
2023/12/19 13:57:46;;;;;;;2.00;1.83;;;;;;;;;;4896602;29;20040;-72
2023/12/19 14:00:15;;;;;;;2.50;2.40;;;;;;;;;;4904093;29;20038;-71
2023/12/19 14:02:42;;;;;;;2.20;2.00;;;;;;;;;;4895988;29;20379;-72
2023/12/19 14:05:08;;;;;;;2.03;1.92;;;;;;;;;;4912893;29;20563;-72
2023/12/19 14:07:34;;;;;;;2.67;2.58;;;;;;;;;;4898700;29;20048;-72
2023/12/19 14:10:01;;;;;;;2.65;2.50;;;;;;;;;;4896745;29;20071;-72
2023/12/19 14:12:31;;;;;;;2.90;2.70;;;;;;;;;;4894969;29;20044;-72
2023/12/19 14:14:57;;;;;;;1.48;1.45;;;;;;;;;;4912220;29;20032;-72
2023/12/19 14:17:22;;;;;;;3.72;2.03;;;;;;;;;;4894431;29;20094;-72
2023/12/19 14:19:48;;;;;;;2.08;1.98;;;;;;;;;;4911660;29;20070;-72
2023/12/19 14:22:14;;;;;;;1.40;1.40;;;;;;;;;;4894042;29;20039;-71
2023/12/19 14:24:40;;;;;;;2.03;1.92;;;;;;;;;;4894105;29;20036;-72
2023/12/19 14:27:06;;;;;;;2.30;2.20;;;;;;;;;;4911486;29;20048;-72
2023/12/19 14:29:32;;;;;;;1.70;1.60;;;;;;;;;;4894572;29;20040;-72
2023/12/19 14:31:58;;;;;;;1.80;1.70;;;;;;;;;;4903206;29;20096;-71
2023/12/19 14:34:24;;;;;;;2.22;1.42;;;;;;;;;;4867918;29;20044;-72
2023/12/19 14:36:50;;;;;;;2.05;1.95;;;;;;;;;;4908728;29;20131;-72
2023/12/19 14:39:16;;;;;;;1.65;1.65;;;;;;;;;;4911075;29;20119;-72
2023/12/19 14:41:45;;;;;;;2.90;1.80;;;;;;;;;;4910777;29;20432;-71